Flight Track Log - Related Links

Times and Time Zones

All times are in EDT time to prevent confusion due to time zone crossing. See the SWA1181 flight status page for this flight to view local times or setup timezone preferences in your user account.


Time Position Orientation Groundspeed Altitude Reporting Facility
EDT Latitude Longitude Course Direction KTS MPH feet Rate Location/Type
Sat 06:58:20 AM 42.9717 -83.8039 North 173 199 2,900  Level Cleveland Center
Sat 06:59:20 AM 43.0156 -83.8006 North 240 276 5,600 2,650 Climbing Cleveland Center
Sat 07:00:20 AM 43.0447 -83.7225 63° Northeast 216 249 8,200 3,250 Climbing Cleveland Center
Sat 07:01:20 AM 43.0728 -83.6131 71° East 253 291 12,100 3,600 Climbing Cleveland Center
Sat 07:02:20 AM 43.0464 -83.5036 108° East 282 325 15,400 2,700 Climbing Cleveland Center
Sat 07:03:20 AM 42.9508 -83.4936 176° South 243 280 17,500 2,250 Climbing Cleveland Center
Sat 07:04:20 AM 42.8444 -83.4886 178° South 332 382 19,900 2,550 Climbing Cleveland Center
Sat 07:05:20 AM 42.7322 -83.4833 178° South 364 419 22,600 2,600 Climbing Cleveland Center
Sat 07:06:20 AM 42.6175 -83.4781 178° South 399 459 25,100 2,300 Climbing Cleveland Center
Sat 07:07:20 AM 42.4989 -83.4756 179° South 419 482 27,200 1,700 Climbing Cleveland Center
Sat 07:08:20 AM 42.3739 -83.4697 178° South 445 512 28,500 1,450 Climbing Cleveland Center
Sat 07:09:20 AM 42.2469 -83.4639 178° South 450 518 30,100 1,900 Climbing Cleveland Center
Sat 07:10:20 AM 42.1156 -83.4636 180° South 460 529 32,300 2,200 Climbing Cleveland Center
Sat 07:11:20 AM 41.9942 -83.4778 185° South 460 529 34,500 1,350 Climbing Cleveland Center
Sat 07:12:20 AM 41.8872 -83.5119 193° South 452 520 35,000 250 Climbing Cleveland Center
Sat 07:13:20 AM 41.7650 -83.5536 194° South 447 514 35,000  Level Cleveland Center
Sat 07:14:20 AM 41.6453 -83.5925 194° South 447 514 35,000 450 Level Cleveland Center
Sat 07:15:20 AM 41.5253 -83.6342 195° South 447 514 35,900 1,100 Climbing Cleveland Center
Sat 07:16:20 AM 41.4053 -83.6756 195° South 447 514 37,200 1,050 Climbing Cleveland Center
Sat 07:17:20 AM 41.2875 -83.7142 194° South 447 514 38,000 400 Climbing Cleveland Center
Sat 07:18:20 AM 41.1697 -83.7556 195° South 437 503 38,000  Level Cleveland Center
Sat 07:18:59 AM 41.0908 -83.7786 192° South 437 503 38,000  Level Indianapolis Center
Sat 07:20:00 AM 40.9728 -83.8169 194° South 439 505 38,000  Level Indianapolis Center
Sat 07:21:01 AM 40.8539 -83.8586 195° South 440 506 38,000  Level Indianapolis Center
Sat 07:22:02 AM 40.7344 -83.8969 194° South 439 505 38,000  Level Indianapolis Center
Sat 07:23:03 AM 40.6167 -83.9356 194° South 436 502 38,000  Level Indianapolis Center
Sat 07:24:03 AM 40.4975 -83.9739 194° South 437 503 38,000  Level Indianapolis Center
Sat 07:25:04 AM 40.3792 -84.0131 194° South 437 503 38,000  Level Indianapolis Center
Sat 07:26:05 AM 40.2594 -84.0483 193° South 438 504 38,000  Level Indianapolis Center
Sat 07:27:06 AM 40.1378 -84.0686 187° South 442 509 38,000  Level Indianapolis Center
Sat 07:28:07 AM 40.0164 -84.0883 187° South 439 505 38,000  Level Indianapolis Center
Sat 07:29:08 AM 39.8728 -84.1119 187° South 443 510 38,000  Level Indianapolis Center
Sat 07:30:09 AM 39.7500 -84.1317 187° South 442 509 38,000  Level Indianapolis Center
Sat 07:31:10 AM 39.6281 -84.1525 187° South 441 507 38,000  Level Indianapolis Center
Sat 07:32:11 AM 39.5053 -84.1731 187° South 442 509 38,000  Level Indianapolis Center
Sat 07:33:12 AM 39.3850 -84.1928 187° South 434 499 38,000  Level Indianapolis Center
Sat 07:34:13 AM 39.2617 -84.2119 187° South 441 507 38,000  Level Indianapolis Center
Sat 07:35:14 AM 39.1406 -84.2336 188° South 437 503 38,000  Level Indianapolis Center
Sat 07:36:15 AM 39.0203 -84.2522 187° South 432 497 38,000  Level Indianapolis Center
Sat 07:37:16 AM 38.9000 -84.2708 187° South 433 498 38,000  Level Indianapolis Center
Sat 07:38:17 AM 38.7803 -84.2906 187° South 430 495 38,000  Level Indianapolis Center
Sat 07:39:18 AM 38.6594 -84.3075 186° South 433 498 38,000  Level Indianapolis Center
Sat 07:40:19 AM 38.5314 -84.2928 175° South 446 513 38,000  Level Indianapolis Center
Sat 07:41:19 AM 38.4083 -84.2742 173° South 445 512 38,000  Level Indianapolis Center
Sat 07:42:20 AM 38.2856 -84.2553 173° South 444 511 38,000  Level Indianapolis Center
Sat 07:43:22 AM 38.1636 -84.2353 173° South 442 509 38,000  Level Indianapolis Center
Sat 07:44:22 AM 38.0431 -84.2175 173° South 437 503 38,000  Level Indianapolis Center
Sat 07:45:24 AM 37.9228 -84.1964 172° South 436 502 38,000  Level Indianapolis Center
Sat 07:46:25 AM 37.8011 -84.1792 174° South 438 504 38,000  Level Indianapolis Center
Sat 07:47:26 AM 37.6586 -84.1572 173° South 442 509 38,000  Level Indianapolis Center
Sat 07:48:27 AM 37.5372 -84.1383 173° South 439 505 38,000  Level Indianapolis Center
Sat 07:49:28 AM 37.4131 -84.1197 173° South 447 514 38,000  Level Indianapolis Center
Sat 07:50:29 AM 37.2883 -84.1003 173° South 450 518 38,000  Level Indianapolis Center
Sat 07:51:30 AM 37.1639 -84.0819 173° South 451 519 38,000  Level Indianapolis Center
Sat 07:52:31 AM 37.0403 -84.0636 173° South 448 516 38,000  Level Indianapolis Center
Sat 07:53:32 AM 36.9169 -84.0447 173° South 447 514 38,000  Level Indianapolis Center
Sat 07:54:33 AM 36.7931 -84.0258 173° South 448 516 38,000  Level Indianapolis Center
Sat 07:55:34 AM 36.6703 -84.0086 174° South 445 512 38,000  Level Indianapolis Center
Sat 07:56:35 AM 36.5467 -83.9886 173° South 448 516 38,000  Level Indianapolis Center
Sat 07:57:36 AM 36.4050 -83.9681 173° South 445 512 38,000  Level Indianapolis Center
Sat 07:58:37 AM 36.2822 -83.9494 173° South 442 509 38,000  Level Indianapolis Center
Sat 07:59:38 AM 36.1625 -83.9108 165° South 442 509 38,000  Level Indianapolis Center
Sat 08:00:21 AM 36.0875 -83.8872 166° South 447 514 38,000  Level Atlanta Center
Sat 08:01:21 AM 35.9683 -83.8489 165° South 447 514 38,000  Level Atlanta Center
Sat 08:02:21 AM 35.8494 -83.8108 165° South 442 509 38,000  Level Atlanta Center
Sat 08:03:21 AM 35.7325 -83.7753 166° South 442 509 38,000  Level Atlanta Center
Sat 08:04:21 AM 35.6136 -83.7372 165° South 437 503 38,000  Level Atlanta Center
Sat 08:05:21 AM 35.4944 -83.6994 166° South 437 503 38,000  Level Atlanta Center
Sat 08:06:21 AM 35.3756 -83.6617 165° South 437 503 38,000  Level Atlanta Center
Sat 08:07:21 AM 35.2564 -83.6242 166° South 437 503 38,000  Level Atlanta Center
Sat 08:08:21 AM 35.1375 -83.5867 166° South 437 503 38,000  Level Atlanta Center
Sat 08:09:21 AM 35.0206 -83.5517 166° South 437 503 38,000  Level Atlanta Center
Sat 08:10:21 AM 34.9033 -83.5144 165° South 431 496 38,000  Level Atlanta Center
Sat 08:11:21 AM 34.7822 -83.4772 166° South 431 496 38,000  Level Atlanta Center
Sat 08:12:21 AM 34.6525 -83.4328 164° South 436 502 38,000  Level Atlanta Center
Sat 08:13:21 AM 34.5336 -83.3958 166° South 442 509 38,000  Level Atlanta Center
Sat 08:14:21 AM 34.4122 -83.3589 166° South 442 509 38,000  Level Atlanta Center
Sat 08:15:21 AM 34.2931 -83.3247 167° South 442 509 38,000  Level Atlanta Center
Sat 08:16:21 AM 34.1739 -83.2856 165° South 437 503 38,000  Level Atlanta Center
Sat 08:17:21 AM 34.0694 -83.2564 167° South 431 496 38,000  Level Atlanta Center
Sat 08:18:21 AM 33.9522 -83.2200 166° South 431 496 38,000  Level Atlanta Center
Sat 08:19:21 AM 33.8308 -83.1811 165° South 436 502 38,000  Level Atlanta Center
Sat 08:20:21 AM 33.7097 -83.1472 167° South 441 507 38,000  Level Atlanta Center
Sat 08:21:21 AM 33.5925 -83.1111 166° South 435 501 38,000  Level Atlanta Center
Sat 08:22:21 AM 33.4628 -83.0753 167° South 440 506 38,000  Level Atlanta Center
Sat 08:23:21 AM 33.3456 -83.0342 164° South 440 506 38,000  Level Atlanta Center
Sat 08:24:21 AM 33.2322 -82.9708 155° Southeast 440 506 38,000  Level Atlanta Center
Sat 08:25:21 AM 33.1292 -82.8781 143° Southeast 451 519 38,000  Level Atlanta Center
Sat 08:26:21 AM 33.0300 -82.7803 140° Southeast 461 531 38,000  Level Atlanta Center
Sat 08:27:21 AM 32.9289 -82.6825 141° Southeast 461 531 38,000  Level Atlanta Center
Sat 08:28:21 AM 32.8275 -82.5878 142° Southeast 466 536 38,000  Level Atlanta Center
Sat 08:29:21 AM 32.7283 -82.4906 140° Southeast 466 536 38,000  Level Atlanta Center
Sat 08:31:39 AM 32.4947 -82.2644 141° Southeast 468 539 38,000  Level Jacksonville Center
Sat 08:32:39 AM 32.4047 -82.1839 143° Southeast 458 527 38,000  Level Jacksonville Center
Sat 08:33:39 AM 32.2933 -82.0792 142° Southeast 466 536 38,000  Level Jacksonville Center
Sat 08:34:39 AM 32.1944 -81.9817 140° Southeast 466 536 38,000  Level Jacksonville Center
Sat 08:35:39 AM 32.1022 -81.8994 143° Southeast 466 536 38,000  Level Jacksonville Center
Sat 08:36:39 AM 31.9906 -81.7928 141° Southeast 464 534 38,000  Level Jacksonville Center
Sat 08:37:39 AM 31.9000 -81.7106 142° Southeast 464 534 38,000  Level Jacksonville Center
Sat 08:38:39 AM 31.7883 -81.6094 142° Southeast 464 534 38,000  Level Jacksonville Center
Sat 08:39:39 AM 31.6731 -81.5547 158° South 454 522 38,000  Level Jacksonville Center
Sat 08:40:39 AM 31.5661 -81.5150 162° South 454 522 38,000  Level Jacksonville Center
Sat 08:41:39 AM 31.4339 -81.4608 161° South 454 522 38,000 -50 Level Jacksonville Center
Sat 08:42:39 AM 31.3081 -81.4142 162° South 464 534 37,900 -550 Descending Jacksonville Center
Sat 08:43:39 AM 31.1886 -81.3675 162° South 464 534 36,900 -900 Descending Jacksonville Center
Sat 08:44:39 AM 31.0794 -81.3256 162° South 459 528 36,100 -450 Descending Jacksonville Center
Sat 08:45:39 AM 30.9536 -81.2744 161° South 464 534 36,000 -400 Descending Jacksonville Center
Sat 08:46:39 AM 30.8297 -81.2281 162° South 470 541 35,300 -850 Descending Jacksonville Center
Sat 08:47:39 AM 30.7061 -81.1794 161° South 470 541 34,300 -850 Descending Jacksonville Center
Sat 08:48:39 AM 30.5867 -81.1503 168° South 458 527 33,600 -800 Descending Jacksonville Center
Sat 08:49:39 AM 30.4569 -81.1456 178° South 457 526 32,700 -950 Descending Jacksonville Center
Sat 08:50:39 AM 30.3233 -81.1456 180° South 468 539 31,700 -950 Descending Jacksonville Center
Sat 08:51:39 AM 30.1961 -81.1406 178° South 468 539 30,800 -950 Descending Jacksonville Center
Sat 08:52:39 AM 30.0622 -81.1358 178° South 468 539 29,800 -1,000 Descending Jacksonville Center
Sat 08:53:39 AM 29.9308 -81.1333 179° South 478 550 28,800 -1,150 Descending Jacksonville Center
Sat 08:54:39 AM 29.7992 -81.1311 179° South 473 544 27,500 -2,000 Descending Jacksonville Center
Sat 08:55:39 AM 29.6739 -81.1261 178° South 473 544 24,800 -2,650 Descending Jacksonville Center
Sat 08:56:39 AM 29.5508 -81.1236 179° South 463 533 22,200 -2,650 Descending Jacksonville Center
Sat 08:57:39 AM 29.4211 -81.1164 177° South 431 496 19,500 -2,600 Descending Jacksonville Center
Sat 08:58:39 AM 29.3083 -81.1136 179° South 419 482 17,000 -2,500 Descending Jacksonville Center
Sat 08:59:39 AM 29.1997 -81.1061 177° South 396 456 14,500 -2,250 Descending Jacksonville Center
Sat 09:00:39 AM 29.0994 -81.0983 176° South 376 433 12,500 -1,300 Descending Jacksonville Center
Sat 09:01:39 AM 29.0075 -81.0906 176° South 335 386 11,900 -450 Descending Jacksonville Center
Sat 09:02:39 AM 28.9217 -81.0778 173° South 322 371 11,600 -800 Descending Jacksonville Center
Sat 09:03:39 AM 28.8403 -81.0628 171° South 315 362 10,300 -1,400 Descending Jacksonville Center
Sat 09:04:39 AM 28.7672 -81.0664 182° South 293 337 8,800 -1,200 Descending Jacksonville Center
Sat 09:05:09 AM 28.7500 -81.1000 240° Southwest 242 278 8,500 -1,137 Descending Orlando TRACON
Sat 09:06:14 AM 28.7167 -81.1667 240° Southwest 221 254 7,000 -1,381 Descending Orlando TRACON
Sat 09:07:15 AM 28.6833 -81.2167 233° Southwest 219 252 5,600 -1,181 Descending Orlando TRACON
Sat 09:08:21 AM 28.6167 -81.2500 204° Southwest 182 209 4,500 -950 Descending Orlando TRACON
Sat 09:09:15 AM 28.6000 -81.2667 221° Southwest 142 163 3,700 -1,167 Descending Orlando TRACON
Sat 09:10:09 AM 28.5667 -81.2833 204° Southwest 127 146 2,400 -1,000 Descending Orlando TRACON
Sat 09:11:09 AM 28.5333 -81.2833 180° South 120 138 1,800 -571 Descending Orlando TRACON
Sat 09:12:15 AM 28.4833 -81.3000 196° South 124 143 1,200 -619 Descending Orlando TRACON
Sat 09:13:15 AM 28.4500 -81.3000 180° South 127 146 500 -700 Descending Orlando TRACON
Sat 09:15:00 AM 28.4294 -81.3090 180° South  Level Estimated

Login

Don't have an account? Register now (free) for customized features, flight alerts, and more!